sensor_id;sensor_type;location;lat;lon;timestamp;pressure;altitude;pressure_sealevel;temperature;humidity
76847;BME280;65813;49.546;8.644;2023-05-07T03:16:46;100462.41;;;14.88;68.59
76847;BME280;65813;49.546;8.644;2023-05-07T03:20:48;100460.78;;;14.56;70.01
76847;BME280;65813;49.546;8.644;2023-05-07T03:24:48;100460.16;;;14.34;71.54
76847;BME280;65813;49.546;8.644;2023-05-07T03:28:48;100441.28;;;14.24;71.83
76847;BME280;65813;49.546;8.644;2023-05-07T03:32:49;100440.63;;;14.32;71.63
76847;BME280;65813;49.546;8.644;2023-05-07T03:36:50;100438.94;;;14.31;71.27
76847;BME280;65813;49.546;8.644;2023-05-07T03:40:50;100431.16;;;14.28;70.88
76847;BME280;65813;49.546;8.644;2023-05-07T03:44:51;100429.84;;;14.43;69.99
76847;BME280;65813;49.546;8.644;2023-05-07T03:48:51;100442.78;;;14.38;70.46
76847;BME280;65813;49.546;8.644;2023-05-07T03:52:52;100433.50;;;14.42;69.85
76847;BME280;65813;49.546;8.644;2023-05-07T03:56:52;100445.34;;;14.18;70.75
76847;BME280;65813;49.546;8.644;2023-05-07T04:00:53;100455.63;;;14.13;71.20
76847;BME280;65813;49.546;8.644;2023-05-07T04:04:53;100448.84;;;14.09;70.52
76847;BME280;65813;49.546;8.644;2023-05-07T04:08:54;100446.28;;;14.08;70.63
76847;BME280;65813;49.546;8.644;2023-05-07T04:12:54;100455.16;;;14.29;69.79
76847;BME280;65813;49.546;8.644;2023-05-07T04:16:54;100460.19;;;14.43;69.00
76847;BME280;65813;49.546;8.644;2023-05-07T04:20:55;100466.84;;;14.58;68.24
76847;BME280;65813;49.546;8.644;2023-05-07T04:24:55;100455.03;;;14.61;67.45
76847;BME280;65813;49.546;8.644;2023-05-07T04:28:59;100469.00;;;14.64;67.68
76847;BME280;65813;49.546;8.644;2023-05-07T04:33:00;100466.63;;;14.71;66.93
76847;BME280;65813;49.546;8.644;2023-05-07T04:37:00;100470.00;;;14.73;67.40
76847;BME280;65813;49.546;8.644;2023-05-07T04:41:03;100474.81;;;14.79;66.65
76847;BME280;65813;49.546;8.644;2023-05-07T04:45:04;100463.94;;;14.71;67.17
76847;BME280;65813;49.546;8.644;2023-05-07T04:49:05;100473.94;;;14.69;67.72
76847;BME280;65813;49.546;8.644;2023-05-07T04:53:05;100470.84;;;14.64;67.59
76847;BME280;65813;49.546;8.644;2023-05-07T04:57:06;100463.84;;;14.82;67.43
76847;BME280;65813;49.546;8.644;2023-05-07T05:01:06;100477.38;;;14.90;67.52
76847;BME280;65813;49.546;8.644;2023-05-07T05:05:07;100484.19;;;15.04;68.12
76847;BME280;65813;49.546;8.644;2023-05-07T05:09:08;100475.28;;;15.03;66.50
76847;BME280;65813;49.546;8.644;2023-05-07T05:13:08;100476.31;;;15.12;66.76
76847;BME280;65813;49.546;8.644;2023-05-07T05:17:09;100489.56;;;15.13;66.29
76847;BME280;65813;49.546;8.644;2023-05-07T05:21:09;100484.06;;;15.15;66.72
76847;BME280;65813;49.546;8.644;2023-05-07T05:25:09;100477.72;;;15.16;67.59
76847;BME280;65813;49.546;8.644;2023-05-07T05:29:10;100480.13;;;15.29;66.89
76847;BME280;65813;49.546;8.644;2023-05-07T05:33:10;100473.63;;;15.31;67.20
76847;BME280;65813;49.546;8.644;2023-05-07T05:37:10;100476.59;;;15.38;66.42
76847;BME280;65813;49.546;8.644;2023-05-07T05:41:11;100479.44;;;15.46;66.07
76847;BME280;65813;49.546;8.644;2023-05-07T05:45:11;100481.84;;;15.49;65.92
76847;BME280;65813;49.546;8.644;2023-05-07T05:49:11;100491.50;;;15.51;66.00
76847;BME280;65813;49.546;8.644;2023-05-07T05:53:12;100496.13;;;15.59;66.32
76847;BME280;65813;49.546;8.644;2023-05-07T05:57:12;100496.13;;;15.59;65.32
76847;BME280;65813;49.546;8.644;2023-05-07T06:01:12;100509.72;;;15.67;65.75
76847;BME280;65813;49.546;8.644;2023-05-07T06:05:13;100508.16;;;15.74;66.23
76847;BME280;65813;49.546;8.644;2023-05-07T06:09:13;100500.50;;;15.89;63.90
76847;BME280;65813;49.546;8.644;2023-05-07T06:13:13;100501.19;;;16.10;63.33
76847;BME280;65813;49.546;8.644;2023-05-07T06:17:14;100503.28;;;16.16;63.52
76847;BME280;65813;49.546;8.644;2023-05-07T06:21:14;100507.78;;;16.25;63.88
76847;BME280;65813;49.546;8.644;2023-05-07T06:25:15;100504.03;;;16.45;63.56
76847;BME280;65813;49.546;8.644;2023-05-07T06:29:15;100498.91;;;16.52;63.57
76847;BME280;65813;49.546;8.644;2023-05-07T06:33:16;100501.88;;;16.58;63.67
76847;BME280;65813;49.546;8.644;2023-05-07T06:37:16;100504.44;;;16.60;64.30
76847;BME280;65813;49.546;8.644;2023-05-07T06:41:16;100508.81;;;16.51;64.60
76847;BME280;65813;49.546;8.644;2023-05-07T06:45:17;100509.13;;;16.58;63.83
76847;BME280;65813;49.546;8.644;2023-05-07T06:49:17;100508.81;;;16.61;64.19
76847;BME280;65813;49.546;8.644;2023-05-07T06:53:18;100501.00;;;16.67;63.01
76847;BME280;65813;49.546;8.644;2023-05-07T06:57:18;100506.03;;;16.80;62.75
76847;BME280;65813;49.546;8.644;2023-05-07T07:01:18;100493.06;;;16.93;62.07
76847;BME280;65813;49.546;8.644;2023-05-07T07:05:19;100501.34;;;17.09;62.42
76847;BME280;65813;49.546;8.644;2023-05-07T07:09:19;100494.03;;;17.02;62.67
76847;BME280;65813;49.546;8.644;2023-05-07T07:13:19;100504.69;;;16.94;66.93
76847;BME280;65813;49.546;8.644;2023-05-07T07:17:20;100508.16;;;16.77;68.56
76847;BME280;65813;49.546;8.644;2023-05-07T07:21:20;100509.31;;;16.74;70.07
76847;BME280;65813;49.546;8.644;2023-05-07T07:25:20;100518.25;;;16.75;72.03
76847;BME280;65813;49.546;8.644;2023-05-07T07:29:21;100510.31;;;16.73;72.20
76847;BME280;65813;49.546;8.644;2023-05-07T07:33:21;100513.72;;;16.75;73.40
76847;BME280;65813;49.546;8.644;2023-05-07T07:37:21;100524.13;;;16.88;73.16
76847;BME280;65813;49.546;8.644;2023-05-07T07:41:22;100508.53;;;16.91;72.92
76847;BME280;65813;49.546;8.644;2023-05-07T07:45:22;100514.41;;;17.04;73.29
76847;BME280;65813;49.546;8.644;2023-05-07T07:49:22;100522.72;;;17.11;71.06
76847;BME280;65813;49.546;8.644;2023-05-07T07:53:23;100523.44;;;17.13;71.12
76847;BME280;65813;49.546;8.644;2023-05-07T07:57:23;100529.34;;;17.16;70.87
76847;BME280;65813;49.546;8.644;2023-05-07T08:01:23;100533.81;;;17.26;70.61
76847;BME280;65813;49.546;8.644;2023-05-07T08:05:24;100537.44;;;17.34;69.79
76847;BME280;65813;49.546;8.644;2023-05-07T08:09:25;100534.28;;;17.39;69.22
76847;BME280;65813;49.546;8.644;2023-05-07T08:13:25;100533.69;;;17.45;69.51
76847;BME280;65813;49.546;8.644;2023-05-07T08:17:26;100525.47;;;17.46;68.73
76847;BME280;65813;49.546;8.644;2023-05-07T08:21:27;100527.69;;;17.51;68.59
76847;BME280;65813;49.546;8.644;2023-05-07T08:25:27;100539.28;;;17.61;68.24
76847;BME280;65813;49.546;8.644;2023-05-07T08:29:28;100527.13;;;17.57;68.85
76847;BME280;65813;49.546;8.644;2023-05-07T08:33:28;100544.72;;;17.69;68.59
76847;BME280;65813;49.546;8.644;2023-05-07T08:37:28;100544.72;;;17.69;67.94
76847;BME280;65813;49.546;8.644;2023-05-07T08:41:29;100548.28;;;17.70;68.01
76847;BME280;65813;49.546;8.644;2023-05-07T08:45:30;100550.28;;;17.67;67.92
76847;BME280;65813;49.546;8.644;2023-05-07T08:49:30;100558.59;;;17.74;68.07
76847;BME280;65813;49.546;8.644;2023-05-07T08:53:31;100563.38;;;17.80;68.70
76847;BME280;65813;49.546;8.644;2023-05-07T08:57:31;100556.81;;;17.83;68.48
76847;BME280;65813;49.546;8.644;2023-05-07T09:01:32;100553.75;;;17.95;68.03
76847;BME280;65813;49.546;8.644;2023-05-07T09:05:32;100568.88;;;17.96;66.84
76847;BME280;65813;49.546;8.644;2023-05-07T09:09:33;100565.75;;;18.01;66.49
76847;BME280;65813;49.546;8.644;2023-05-07T09:13:33;100553.66;;;18.05;65.03
76847;BME280;65813;49.546;8.644;2023-05-07T09:17:34;100545.41;;;18.06;66.38
76847;BME280;65813;49.546;8.644;2023-05-07T09:21:35;100550.81;;;18.06;67.81
76847;BME280;65813;49.546;8.644;2023-05-07T09:25:36;100536.09;;;18.01;67.79
76847;BME280;65813;49.546;8.644;2023-05-07T09:29:36;100527.84;;;18.02;67.90
76847;BME280;65813;49.546;8.644;2023-05-07T09:33:38;100542.63;;;18.16;66.04
76847;BME280;65813;49.546;8.644;2023-05-07T09:37:38;100524.81;;;18.23;66.92
76847;BME280;65813;49.546;8.644;2023-05-07T09:41:46;100531.94;;;18.32;67.07
76847;BME280;65813;49.546;8.644;2023-05-07T09:45:47;100531.28;;;18.38;67.01
76847;BME280;65813;49.546;8.644;2023-05-07T09:49:55;100534.53;;;18.67;66.94
76847;BME280;65813;49.546;8.644;2023-05-07T09:53:58;100525.31;;;18.78;65.89
76847;BME280;65813;49.546;8.644;2023-05-07T09:58:02;100517.88;;;18.80;64.70
76847;BME280;65813;49.546;8.644;2023-05-07T10:02:04;100528.38;;;18.83;64.13
76847;BME280;65813;49.546;8.644;2023-05-07T10:06:08;100527.75;;;18.97;64.45
76847;BME280;65813;49.546;8.644;2023-05-07T10:10:08;100525.44;;;19.10;63.76
76847;BME280;65813;49.546;8.644;2023-05-07T10:14:10;100524.09;;;19.64;61.62
76847;BME280;65813;49.546;8.644;2023-05-07T10:18:11;100514.78;;;20.07;59.87
76847;BME280;65813;49.546;8.644;2023-05-07T10:22:13;100511.72;;;20.27;59.45
76847;BME280;65813;49.546;8.644;2023-05-07T10:26:14;100511.06;;;20.41;57.82
76847;BME280;65813;49.546;8.644;2023-05-07T10:34:42;100495.78;;;21.34;54.27
76847;BME280;65813;49.546;8.644;2023-05-07T10:38:44;100480.72;;;22.14;49.70
76847;BME280;65813;49.546;8.644;2023-05-07T10:42:55;100479.13;;;22.05;51.53
76847;BME280;65813;49.546;8.644;2023-05-07T10:47:04;100487.84;;;21.78;52.13
76847;BME280;65813;49.546;8.644;2023-05-07T10:51:21;100478.63;;;21.64;52.51
76847;BME280;65813;49.546;8.644;2023-05-07T10:55:22;100484.53;;;22.86;49.86
76847;BME280;65813;49.546;8.644;2023-05-07T10:59:33;100466.91;;;22.97;46.91
76847;BME280;65813;49.546;8.644;2023-05-07T11:03:34;100475.22;;;23.46;43.19
76847;BME280;65813;49.546;8.644;2023-05-07T11:07:35;100468.50;;;22.91;47.37
76847;BME280;65813;49.546;8.644;2023-05-07T11:11:48;100466.13;;;23.39;43.95
76847;BME280;65813;49.546;8.644;2023-05-07T11:15:51;100468.94;;;23.67;42.87
76847;BME280;65813;49.546;8.644;2023-05-07T11:19:52;100459.81;;;23.74;44.02
76847;BME280;65813;49.546;8.644;2023-05-07T11:27:54;100445.72;;;24.13;40.25
76847;BME280;65813;49.546;8.644;2023-05-07T11:31:55;100442.84;;;24.28;38.64
76847;BME280;65813;49.546;8.644;2023-05-07T11:35:56;100449.09;;;24.22;38.93
76847;BME280;65813;49.546;8.644;2023-05-07T11:40:07;100443.63;;;24.15;39.84
76847;BME280;65813;49.546;8.644;2023-05-07T11:44:07;100440.50;;;23.69;40.79
76847;BME280;65813;49.546;8.644;2023-05-07T11:48:08;100440.44;;;23.62;40.72
76847;BME280;65813;49.546;8.644;2023-05-07T11:52:08;100437.34;;;23.93;40.18
76847;BME280;65813;49.546;8.644;2023-05-07T11:56:10;100441.44;;;23.83;38.70
76847;BME280;65813;49.546;8.644;2023-05-07T12:00:11;100443.53;;;24.08;39.19
76847;BME280;65813;49.546;8.644;2023-05-07T12:04:11;100420.56;;;24.86;38.01
76847;BME280;65813;49.546;8.644;2023-05-07T12:08:19;100430.84;;;24.84;38.77
76847;BME280;65813;49.546;8.644;2023-05-07T12:12:20;100428.41;;;24.61;39.52
76847;BME280;65813;49.546;8.644;2023-05-07T12:16:20;100433.97;;;24.47;38.29
76847;BME280;65813;49.546;8.644;2023-05-07T12:20:21;100428.06;;;24.37;37.49
76847;BME280;65813;49.546;8.644;2023-05-07T12:24:22;100427.28;;;24.15;37.91
76847;BME280;65813;49.546;8.644;2023-05-07T12:28:22;100418.53;;;24.20;38.30
76847;BME280;65813;49.546;8.644;2023-05-07T12:32:22;100423.94;;;24.47;37.73
76847;BME280;65813;49.546;8.644;2023-05-07T12:36:23;100417.59;;;24.40;38.12
76847;BME280;65813;49.546;8.644;2023-05-07T12:40:23;100414.00;;;24.33;38.43
76847;BME280;65813;49.546;8.644;2023-05-07T12:44:24;100412.91;;;24.28;41.57
76847;BME280;65813;49.546;8.644;2023-05-07T12:48:25;100399.09;;;24.01;42.65
76847;BME280;65813;49.546;8.644;2023-05-07T12:52:27;100404.66;;;24.55;36.49
76847;BME280;65813;49.546;8.644;2023-05-07T12:56:31;100409.66;;;24.86;36.25
76847;BME280;65813;49.546;8.644;2023-05-07T13:00:38;100401.50;;;24.93;37.21
76847;BME280;65813;49.546;8.644;2023-05-07T13:04:38;100394.66;;;24.69;36.92
76847;BME280;65813;49.546;8.644;2023-05-07T13:08:40;100394.91;;;24.74;36.34
76847;BME280;65813;49.546;8.644;2023-05-07T13:12:43;100390.47;;;24.67;37.19
76847;BME280;65813;49.546;8.644;2023-05-07T13:16:43;100397.13;;;24.51;36.38
76847;BME280;65813;49.546;8.644;2023-05-07T13:20:43;100398.31;;;24.42;36.54
76847;BME280;65813;49.546;8.644;2023-05-07T13:24:44;100386.72;;;24.68;36.05
76847;BME280;65813;49.546;8.644;2023-05-07T13:28:44;100380.94;;;24.90;36.17
76847;BME280;65813;49.546;8.644;2023-05-07T13:32:44;100385.88;;;24.74;34.94
76847;BME280;65813;49.546;8.644;2023-05-07T13:36:47;100381.59;;;24.51;38.73
76847;BME280;65813;49.546;8.644;2023-05-07T13:40:48;100382.53;;;24.31;36.54
76847;BME280;65813;49.546;8.644;2023-05-07T13:44:48;100378.97;;;24.24;37.04
76847;BME280;65813;49.546;8.644;2023-05-07T13:48:48;100363.22;;;23.91;38.56
76847;BME280;65813;49.546;8.644;2023-05-07T13:52:50;100356.00;;;23.77;39.99
76847;BME280;65813;49.546;8.644;2023-05-07T13:56:51;100367.16;;;23.82;39.04
76847;BME280;65813;49.546;8.644;2023-05-07T14:00:51;100360.34;;;23.65;40.30
76847;BME280;65813;49.546;8.644;2023-05-07T14:04:51;100369.66;;;23.56;40.34
76847;BME280;65813;49.546;8.644;2023-05-07T14:08:52;100358.53;;;23.51;41.08
76847;BME280;65813;49.546;8.644;2023-05-07T14:12:52;100376.38;;;23.39;40.35
76847;BME280;65813;49.546;8.644;2023-05-07T14:16:55;100375.09;;;23.35;42.13
76847;BME280;65813;49.546;8.644;2023-05-07T14:20:56;100402.59;;;23.04;43.57
76847;BME280;65813;49.546;8.644;2023-05-07T14:24:56;100404.28;;;22.40;46.16
76847;BME280;65813;49.546;8.644;2023-05-07T14:28:56;100413.09;;;22.27;48.00
76847;BME280;65813;49.546;8.644;2023-05-07T14:32:58;100423.31;;;21.88;53.90
76847;BME280;65813;49.546;8.644;2023-05-07T14:36:59;100431.03;;;21.39;55.75
76847;BME280;65813;49.546;8.644;2023-05-07T14:41:00;100437.34;;;20.70;58.37
76847;BME280;65813;49.546;8.644;2023-05-07T14:45:01;100510.31;;;20.55;60.38
76847;BME280;65813;49.546;8.644;2023-05-07T14:49:02;100569.88;;;19.74;66.25
76847;BME280;65813;49.546;8.644;2023-05-07T14:53:02;100582.38;;;19.25;71.25
76847;BME280;65813;49.546;8.644;2023-05-07T14:57:05;100617.72;;;18.72;73.36
76847;BME280;65813;49.546;8.644;2023-05-07T15:01:05;100628.91;;;18.34;71.50
76847;BME280;65813;49.546;8.644;2023-05-07T15:05:06;100658.38;;;17.64;76.20
76847;BME280;65813;49.546;8.644;2023-05-07T15:09:06;100669.31;;;17.53;77.84
76847;BME280;65813;49.546;8.644;2023-05-07T15:13:09;100660.25;;;17.27;81.97
76847;BME280;65813;49.546;8.644;2023-05-07T15:17:09;100675.22;;;17.02;82.30
76847;BME280;65813;49.546;8.644;2023-05-07T15:21:10;100681.75;;;16.90;82.86
76847;BME280;65813;49.546;8.644;2023-05-07T15:25:10;100677.63;;;17.05;82.18
76847;BME280;65813;49.546;8.644;2023-05-07T15:29:11;100674.09;;;16.95;82.92
76847;BME280;65813;49.546;8.644;2023-05-07T15:33:11;100676.19;;;17.01;83.70
76847;BME280;65813;49.546;8.644;2023-05-07T15:37:12;100686.44;;;16.88;82.30
76847;BME280;65813;49.546;8.644;2023-05-07T15:41:12;100692.38;;;16.92;82.98
76847;BME280;65813;49.546;8.644;2023-05-07T15:45:13;100684.19;;;16.84;82.82
76847;BME280;65813;49.546;8.644;2023-05-07T15:49:13;100684.78;;;17.14;82.10
76847;BME280;65813;49.546;8.644;2023-05-07T15:53:13;100689.19;;;17.15;81.77
76847;BME280;65813;49.546;8.644;2023-05-07T15:57:14;100676.09;;;16.84;81.39
76847;BME280;65813;49.546;8.644;2023-05-07T16:01:14;100675.31;;;16.64;82.70
76847;BME280;65813;49.546;8.644;2023-05-07T16:05:15;100671.03;;;16.52;83.10
76847;BME280;65813;49.546;8.644;2023-05-07T16:09:15;100671.16;;;16.79;83.24
76847;BME280;65813;49.546;8.644;2023-05-07T16:13:15;100672.00;;;16.89;82.68
76847;BME280;65813;49.546;8.644;2023-05-07T16:17:19;100682.94;;;16.59;83.48
76847;BME280;65813;49.546;8.644;2023-05-07T16:21:19;100678.00;;;16.64;83.29
76847;BME280;65813;49.546;8.644;2023-05-07T16:25:19;100685.66;;;16.69;83.27
76847;BME280;65813;49.546;8.644;2023-05-07T16:29:20;100677.28;;;16.62;82.83
76847;BME280;65813;49.546;8.644;2023-05-07T16:33:22;100687.16;;;16.81;82.24
76847;BME280;65813;49.546;8.644;2023-05-07T16:37:22;100684.78;;;16.49;82.59
76847;BME280;65813;49.546;8.644;2023-05-07T16:41:22;100690.88;;;16.12;85.00
76847;BME280;65813;49.546;8.644;2023-05-07T16:45:23;100684.63;;;16.02;85.06
76847;BME280;65813;49.546;8.644;2023-05-07T16:49:23;100684.59;;;15.74;87.04
76847;BME280;65813;49.546;8.644;2023-05-07T16:53:23;100690.97;;;15.82;86.61
76847;BME280;65813;49.546;8.644;2023-05-07T16:57:24;100696.16;;;15.64;87.56
76847;BME280;65813;49.546;8.644;2023-05-07T17:01:24;100707.59;;;15.66;87.48
76847;BME280;65813;49.546;8.644;2023-05-07T17:05:25;100694.97;;;15.48;87.73
76847;BME280;65813;49.546;8.644;2023-05-07T17:09:25;100707.34;;;15.39;88.70
76847;BME280;65813;49.546;8.644;2023-05-07T17:13:26;100703.88;;;15.48;88.07
76847;BME280;65813;49.546;8.644;2023-05-07T17:17:26;100700.50;;;15.56;88.55
76847;BME280;65813;49.546;8.644;2023-05-07T17:21:26;100697.19;;;15.83;88.29
76847;BME280;65813;49.546;8.644;2023-05-07T17:25:27;100708.50;;;15.86;87.01
76847;BME280;65813;49.546;8.644;2023-05-07T17:29:29;100699.47;;;15.87;86.65
76847;BME280;65813;49.546;8.644;2023-05-07T17:33:29;100691.38;;;15.68;87.47
76847;BME280;65813;49.546;8.644;2023-05-07T17:37:29;100689.94;;;15.64;88.34
76847;BME280;65813;49.546;8.644;2023-05-07T17:41:30;100679.03;;;15.56;88.52
76847;BME280;65813;49.546;8.644;2023-05-07T17:45:31;100679.09;;;15.75;88.85
76847;BME280;65813;49.546;8.644;2023-05-07T17:49:31;100682.59;;;15.76;87.18
76847;BME280;65813;49.546;8.644;2023-05-07T17:53:32;100687.66;;;15.59;88.84
76847;BME280;65813;49.546;8.644;2023-05-07T17:57:32;100689.28;;;15.81;87.78
76847;BME280;65813;49.546;8.644;2023-05-07T18:01:36;100672.31;;;15.90;87.45
76847;BME280;65813;49.546;8.644;2023-05-07T18:05:36;100672.34;;;16.09;85.74
76847;BME280;65813;49.546;8.644;2023-05-07T18:09:37;100675.72;;;16.21;87.18
76847;BME280;65813;49.546;8.644;2023-05-07T18:13:37;100665.66;;;15.94;87.95
76847;BME280;65813;49.546;8.644;2023-05-07T18:17:38;100669.38;;;16.12;87.62
76847;BME280;65813;49.546;8.644;2023-05-07T18:21:39;100676.84;;;16.28;86.61
76847;BME280;65813;49.546;8.644;2023-05-07T18:25:39;100659.63;;;16.31;85.65
76847;BME280;65813;49.546;8.644;2023-05-07T18:29:39;100671.06;;;16.33;86.16
76847;BME280;65813;49.546;8.644;2023-05-07T18:33:40;100682.50;;;16.35;84.00
76847;BME280;65813;49.546;8.644;2023-05-07T18:37:40;100690.72;;;16.33;84.15
76847;BME280;65813;49.546;8.644;2023-05-07T18:41:40;100697.78;;;16.34;81.04
76847;BME280;65813;49.546;8.644;2023-05-07T18:45:41;100691.72;;;16.13;83.58
76847;BME280;65813;49.546;8.644;2023-05-07T18:49:42;100703.41;;;15.93;85.59
76847;BME280;65813;49.546;8.644;2023-05-07T18:53:42;100711.09;;;16.16;83.74
76847;BME280;65813;49.546;8.644;2023-05-07T18:57:42;100717.34;;;16.27;82.59
76847;BME280;65813;49.546;8.644;2023-05-07T19:01:44;100722.84;;;16.15;83.18
76847;BME280;65813;49.546;8.644;2023-05-07T19:05:45;100731.44;;;16.00;82.78
76847;BME280;65813;49.546;8.644;2023-05-07T19:09:45;100734.34;;;15.68;85.81
76847;BME280;65813;49.546;8.644;2023-05-07T19:13:45;100749.63;;;15.47;83.51
76847;BME280;65813;49.546;8.644;2023-05-07T19:17:46;100745.31;;;15.35;84.03
76847;BME280;65813;49.546;8.644;2023-05-07T19:21:46;100762.88;;;15.39;85.00
76847;BME280;65813;49.546;8.644;2023-05-07T19:25:46;100759.59;;;15.56;86.44
76847;BME280;65813;49.546;8.644;2023-05-07T19:29:47;100765.94;;;15.55;84.76
76847;BME280;65813;49.546;8.644;2023-05-07T19:33:47;100775.53;;;15.78;82.08
76847;BME280;65813;49.546;8.644;2023-05-07T19:37:48;100785.69;;;15.75;83.01
76847;BME280;65813;49.546;8.644;2023-05-07T19:41:48;100793.59;;;15.76;85.06
76847;BME280;65813;49.546;8.644;2023-05-07T19:45:51;100800.09;;;15.74;85.87
76847;BME280;65813;49.546;8.644;2023-05-07T19:49:51;100812.03;;;15.90;86.03
76847;BME280;65813;49.546;8.644;2023-05-07T19:53:52;100817.56;;;15.89;85.25
76847;BME280;65813;49.546;8.644;2023-05-07T19:57:52;100819.38;;;15.88;85.91
76847;BME280;65813;49.546;8.644;2023-05-07T20:01:52;100823.38;;;16.03;85.42
76847;BME280;65813;49.546;8.644;2023-05-07T20:05:53;100831.56;;;15.92;85.97
76847;BME280;65813;49.546;8.644;2023-05-07T20:09:53;100831.84;;;15.89;84.26
76847;BME280;65813;49.546;8.644;2023-05-07T20:13:53;100839.75;;;15.91;85.23
76847;BME280;65813;49.546;8.644;2023-05-07T20:17:54;100851.22;;;15.62;87.00
76847;BME280;65813;49.546;8.644;2023-05-07T20:21:54;100856.06;;;15.69;87.24
76847;BME280;65813;49.546;8.644;2023-05-07T20:25:56;100856.91;;;15.69;87.19
76847;BME280;65813;49.546;8.644;2023-05-07T20:29:57;100853.00;;;15.83;86.51
76847;BME280;65813;49.546;8.644;2023-05-07T20:33:57;100848.56;;;15.72;86.96
76847;BME280;65813;49.546;8.644;2023-05-07T20:37:58;100861.38;;;15.59;86.52
76847;BME280;65813;49.546;8.644;2023-05-07T20:41:58;100865.22;;;15.66;86.72
76847;BME280;65813;49.546;8.644;2023-05-07T20:45:59;100869.88;;;15.64;87.47
76847;BME280;65813;49.546;8.644;2023-05-07T20:50:03;100861.09;;;15.62;86.67
76847;BME280;65813;49.546;8.644;2023-05-07T20:54:03;100856.84;;;15.90;86.40
76847;BME280;65813;49.546;8.644;2023-05-07T20:58:03;100860.31;;;15.71;86.29
76847;BME280;65813;49.546;8.644;2023-05-07T21:02:04;100869.84;;;15.54;86.83
76847;BME280;65813;49.546;8.644;2023-05-07T21:06:04;100878.91;;;15.63;86.75
76847;BME280;65813;49.546;8.644;2023-05-07T21:10:05;100874.34;;;15.54;87.47
76847;BME280;65813;49.546;8.644;2023-05-07T21:14:06;100868.84;;;15.55;87.95
76847;BME280;65813;49.546;8.644;2023-05-07T21:18:06;100883.59;;;15.61;87.31
76847;BME280;65813;49.546;8.644;2023-05-07T21:22:06;100877.47;;;15.59;85.99
76847;BME280;65813;49.546;8.644;2023-05-07T21:26:07;100878.88;;;15.53;87.23
76847;BME280;65813;49.546;8.644;2023-05-07T21:30:08;100880.59;;;15.54;86.95
76847;BME280;65813;49.546;8.644;2023-05-07T21:34:08;100874.34;;;15.33;87.05
76847;BME280;65813;49.546;8.644;2023-05-07T21:38:08;100875.50;;;15.40;86.51
76847;BME280;65813;49.546;8.644;2023-05-07T21:42:09;100885.38;;;15.51;85.80
76847;BME280;65813;49.546;8.644;2023-05-07T21:46:09;100892.28;;;15.33;86.70
76847;BME280;65813;49.546;8.644;2023-05-07T21:50:09;100903.63;;;15.57;86.74
76847;BME280;65813;49.546;8.644;2023-05-07T21:54:10;100899.75;;;15.50;87.05
76847;BME280;65813;49.546;8.644;2023-05-07T21:58:10;100897.13;;;15.59;86.29
76847;BME280;65813;49.546;8.644;2023-05-07T22:02:10;100894.03;;;15.43;87.03
76847;BME280;65813;49.546;8.644;2023-05-07T22:06:11;100905.31;;;15.37;87.43
76847;BME280;65813;49.546;8.644;2023-05-07T22:10:11;100910.25;;;15.53;87.06
76847;BME280;65813;49.546;8.644;2023-05-07T22:14:11;100913.91;;;15.52;87.01
76847;BME280;65813;49.546;8.644;2023-05-07T22:18:12;100908.38;;;15.33;88.15
76847;BME280;65813;49.546;8.644;2023-05-07T22:22:12;100911.31;;;15.30;88.41
76847;BME280;65813;49.546;8.644;2023-05-07T22:26:13;100919.97;;;15.01;88.96
76847;BME280;65813;49.546;8.644;2023-05-07T22:30:14;100915.31;;;15.03;88.16
76847;BME280;65813;49.546;8.644;2023-05-07T22:34:14;100904.16;;;14.87;88.86
76847;BME280;65813;49.546;8.644;2023-05-07T22:38:15;100912.59;;;14.83;89.12
76847;BME280;65813;49.546;8.644;2023-05-07T22:42:15;100900.13;;;14.61;90.34
76847;BME280;65813;49.546;8.644;2023-05-07T22:46:15;100910.56;;;14.75;90.09
76847;BME280;65813;49.546;8.644;2023-05-07T22:50:16;100907.66;;;14.67;90.18
76847;BME280;65813;49.546;8.644;2023-05-07T22:54:16;100899.31;;;14.81;88.96
76847;BME280;65813;49.546;8.644;2023-05-07T22:58:16;100902.38;;;14.77;89.34
76847;BME280;65813;49.546;8.644;2023-05-07T23:02:17;100900.53;;;14.88;89.84
76847;BME280;65813;49.546;8.644;2023-05-07T23:06:17;100900.03;;;14.83;89.95
76847;BME280;65813;49.546;8.644;2023-05-07T23:10:17;100897.06;;;14.97;88.00
76847;BME280;65813;49.546;8.644;2023-05-07T23:14:18;100900.50;;;14.99;88.38
76847;BME280;65813;49.546;8.644;2023-05-07T23:18:18;100900.56;;;15.09;88.62
76847;BME280;65813;49.546;8.644;2023-05-07T23:22:18;100898.22;;;15.15;87.69
76847;BME280;65813;49.546;8.644;2023-05-07T23:26:19;100890.16;;;15.15;86.93
